Vancouver, British Columbia

10:55 AM PST on January 26, 2015 (GMT -0800)
Vancouver | Change Station
CLOSE
Current Station
Airport
Location: Vancouver,
Elevation: 13 ft
Nearby Weather Stations

Elev 13 ft 49.18 °N, 123.17 °W | Updated 17 minutes ago

Mostly Cloudy
Mostly Cloudy
45 °F
Feels Like 40 °F
N
8
Wind Variable Wind from East

Today
High -- | Low -- °F
--% Chance of Precip.
Yesterday
High -- | Low -- °F
Precip. -- in
7:51 AM 4:59 PM
Waxing Crescent, 45% visible
Pressure 29.96 in
Visibility 0.8 miles
Clouds Mostly Cloudy 300 ft
Windchill 40 °F
Dew Point 43 °F
Humidity 93%
Rainfall 0.00 in
Snow Depth Not available.
UV 1 out of 12
Pollen Not available.
Air Quality Not available.
Flu Activity Not available.
SPECI CYVR 261838Z 09007KT 3/4SM R08L/3500VP6000FT/U R08R/2800V6000FT/N BR BKN003 07/06 A2996 RMK FG5SF2 WND ESTD SLP146

More Conditions Fewer Conditions

Pressure 29.96 in
Visibility 0.8 miles
Clouds Mostly Cloudy 300 ft
Windchill 40 °F
Dew Point 43 °F
Humidity 93%
Rainfall 0.00 in
Snow Depth Not available.
UV 1 out of 12
Pollen Not available.
Air Quality Not available.
Flu Activity Not available.
SPECI CYVR 261838Z 09007KT 3/4SM R08L/3500VP6000FT/U R08R/2800V6000FT/N BR BKN003 07/06 A2996 RMK FG5SF2 WND ESTD SLP146

More Conditions Fewer Conditions

10-Day Weather Forecast

Almanac

Astronomy

Jan. 26, 2015 Rise Set
Actual Time
Civil Twilight
Nautical Twilight
Astronomical Twilight
Moon
Length of Visible Light
Length of Day
Tomorrow will be .
, % of the Moon is Illuminated

Today's Extremes

Country Highs Country Lows

Community

WunderPhotos

Upload Photos

1,790,312 photos uploaded!

WunderBlogs® & News

Nearby

Air Quality

  Air Quality AQ Index Pollutant
Not available.

Snow Depth

Station Depth Elevation

Earthquake Activity

City Distance Mag. Time & Date
Minimum magnitude displayed is 2.5.

Coastal Water Temperatures

Place Temperature

Nearby Weather Stations